Time;durP1;ratioP1;P1;durP2;ratioP2;P2;SDS_P1;SDS_P2;PMS_P1;PMS_P2;Temp;Humidity;BMP_temperature;BMP_pressure;BME280_temperature;BME280_humidity;BME280_pressure;Samples;Min_cycle;Max_cycle;Signal;HPM_P1;HPM_P2
2022/01/25 00:15:50;;;;;;;0.00;0.00;;;;;26.60;100210.00;;;;5085401;28;20040;-76
2022/01/25 00:26:59;;;;;;;0.00;0.00;;;;;26.60;100182.00;;;;5086246;28;20048;-76
2022/01/25 00:32:16;;;;;;;0.00;0.00;;;;;26.50;100178.00;;;;5086138;28;20108;-77
2022/01/25 00:34:45;;;;;;;0.00;0.00;;;;;26.60;100204.00;;;;5085551;28;20071;-75
2022/01/25 00:37:15;;;;;;;0.80;0.65;;;;;26.60;100195.00;;;;5085880;28;20043;-76
2022/01/25 00:39:45;;;;;;;0.00;0.00;;;;;26.70;100205.00;;;;5086116;28;20058;-76
2022/01/25 00:42:15;;;;;;;0.00;0.00;;;;;26.80;100204.00;;;;5085166;28;20073;-77
2022/01/25 00:44:48;;;;;;;0.03;0.03;;;;;26.90;100185.00;;;;5085213;28;20056;-78
2022/01/25 00:47:17;;;;;;;0.00;0.00;;;;;26.90;100219.00;;;;5086152;28;20154;-77
2022/01/25 00:49:52;;;;;;;0.00;0.00;;;;;26.90;100233.00;;;;5085987;28;20044;-78
2022/01/25 00:53:55;;;;;;;0.00;0.00;;;;;26.90;100244.00;;;;5068451;28;20052;-77
2022/01/25 00:55:14;;;;;;;0.00;0.00;;;;;26.90;100256.00;;;;5066932;28;20059;-75
2022/01/25 00:57:44;;;;;;;0.00;0.00;;;;;26.90;100249.00;;;;5085782;28;20105;-77
2022/01/25 01:00:14;;;;;;;0.00;0.00;;;;;26.90;100249.00;;;;5085872;28;20105;-75
2022/01/25 01:02:43;;;;;;;0.03;0.03;;;;;26.60;100253.00;;;;5085709;28;20518;-77
2022/01/25 01:05:13;;;;;;;0.00;0.00;;;;;26.50;100240.00;;;;5068498;28;20124;-76
2022/01/25 01:07:43;;;;;;;0.00;0.00;;;;;26.30;100242.00;;;;5085612;28;20052;-76
2022/01/25 01:10:17;;;;;;;0.00;0.00;;;;;26.20;100253.00;;;;5089028;28;20052;-77
2022/01/25 01:29:23;;;;;;;0.00;0.00;;;;;26.20;100288.00;;;;5089424;28;20043;-75
2022/01/25 01:38:07;;;;;;;0.00;0.00;;;;;25.70;100297.00;;;;5089083;28;20456;-75
2022/01/25 01:40:58;;;;;;;0.00;0.00;;;;;25.60;100317.00;;;;5088555;28;20095;-76
2022/01/25 01:48:53;;;;;;;0.00;0.00;;;;;25.50;100302.00;;;;5088945;28;20071;-76
2022/01/25 01:51:34;;;;;;;0.00;0.00;;;;;25.40;100314.00;;;;5089298;28;20044;-77
2022/01/25 01:54:05;;;;;;;0.90;0.90;;;;;25.40;100330.00;;;;5088777;28;20132;-77
2022/01/25 01:56:35;;;;;;;;;;;;;25.30;100355.00;;;;5089054;28;20040;-77
2022/01/25 01:59:07;;;;;;;0.00;0.00;;;;;25.30;100342.00;;;;5088881;28;20431;-77
2022/01/25 02:01:39;;;;;;;0.00;0.00;;;;;25.30;100352.00;;;;5088713;28;20048;-76
2022/01/25 02:04:15;;;;;;;0.00;0.00;;;;;25.30;100342.00;;;;5087893;28;20043;-77
2022/01/25 02:06:44;;;;;;;0.00;0.00;;;;;25.20;100334.00;;;;5088360;28;20044;-77
2022/01/25 02:09:14;;;;;;;0.00;0.00;;;;;25.20;100345.00;;;;5088792;28;20036;-76
2022/01/25 02:11:44;;;;;;;0.00;0.00;;;;;25.20;100353.00;;;;5088271;28;20048;-76
2022/01/25 02:14:15;;;;;;;0.00;0.00;;;;;25.20;100361.00;;;;5088513;28;20104;-77
2022/01/25 02:24:51;;;;;;;0.00;0.00;;;;;25.60;100386.00;;;;5088355;28;20079;-77
2022/01/25 02:27:21;;;;;;;0.00;0.00;;;;;25.80;100402.00;;;;5070327;28;20458;-76
2022/01/25 02:29:50;;;;;;;0.00;0.00;;;;;25.80;100414.00;;;;5088603;28;20044;-76
2022/01/25 02:32:20;;;;;;;0.00;0.00;;;;;25.90;100426.00;;;;5088006;28;20040;-76
2022/01/25 02:34:50;;;;;;;0.00;0.00;;;;;26.10;100432.00;;;;5088162;28;20154;-76
2022/01/25 02:37:19;;;;;;;0.00;0.00;;;;;26.20;100437.00;;;;5088180;28;20579;-75
2022/01/25 02:39:48;;;;;;;0.00;0.00;;;;;26.30;100416.00;;;;5087915;28;20495;-75
2022/01/25 02:42:18;;;;;;;0.10;0.05;;;;;26.30;100416.00;;;;5088191;28;20051;-76
2022/01/25 02:44:48;;;;;;;0.00;0.00;;;;;26.30;100394.00;;;;5087436;28;20060;-75
2022/01/25 02:50:06;;;;;;;0.00;0.00;;;;;26.30;100416.00;;;;5087008;28;20048;-75
2022/01/25 02:52:36;;;;;;;0.00;0.00;;;;;26.20;100394.00;;;;5087418;28;20052;-76
2022/01/25 02:55:06;;;;;;;0.00;0.00;;;;;26.20;100403.00;;;;5087593;28;20426;-76
2022/01/25 02:57:35;;;;;;;0.00;0.00;;;;;26.20;100401.00;;;;5087147;28;20051;-76
2022/01/25 03:00:09;;;;;;;0.40;0.40;;;;;26.20;100399.00;;;;5087044;28;20048;-77
2022/01/25 03:02:38;;;;;;;0.25;0.20;;;;;26.20;100408.00;;;;5086579;28;20419;-76
2022/01/25 03:05:08;;;;;;;0.10;0.10;;;;;26.20;100409.00;;;;5087212;28;20040;-76
2022/01/25 03:07:39;;;;;;;0.00;0.00;;;;;26.30;100404.00;;;;5087667;28;20052;-77
2022/01/25 03:10:08;;;;;;;0.00;0.00;;;;;26.30;100412.00;;;;5087092;28;20139;-76
2022/01/25 03:12:47;;;;;;;0.00;0.00;;;;;26.30;100404.00;;;;5086571;28;20047;-75
2022/01/25 03:18:00;;;;;;;0.10;0.10;;;;;26.20;100389.00;;;;5086863;28;20043;-76
2022/01/25 03:20:50;;;;;;;0.00;0.00;;;;;26.10;100371.00;;;;5087175;28;20399;-75
2022/01/25 03:23:21;;;;;;;2.72;0.70;;;;;26.20;100371.00;;;;5086525;28;20573;-76
2022/01/25 03:25:52;;;;;;;0.00;0.00;;;;;26.10;100370.00;;;;5087250;28;20802;-77
2022/01/25 03:28:22;;;;;;;0.00;0.00;;;;;26.10;100368.00;;;;5086911;28;20051;-76
2022/01/25 03:30:51;;;;;;;0.00;0.00;;;;;26.10;100364.00;;;;5086774;28;20048;-76
2022/01/25 03:33:22;;;;;;;2.65;2.45;;;;;26.10;100361.00;;;;5086400;28;20079;-75
2022/01/25 03:35:51;;;;;;;0.40;0.40;;;;;26.10;100381.00;;;;5087047;28;20052;-76
2022/01/25 03:38:20;;;;;;;0.00;0.00;;;;;26.00;100372.00;;;;5086813;28;20039;-76
2022/01/25 03:40:50;;;;;;;0.20;0.20;;;;;26.10;100392.00;;;;5086920;28;20054;-76
2022/01/25 03:43:19;;;;;;;0.60;0.47;;;;;26.00;100372.00;;;;5086123;28;20051;-77
2022/01/25 03:51:36;;;;;;;0.38;0.38;;;;;26.10;100377.00;;;;5086727;28;20047;-77
2022/01/25 03:54:05;;;;;;;0.75;0.75;;;;;26.10;100386.00;;;;5086783;28;20039;-78
2022/01/25 03:56:36;;;;;;;0.10;0.10;;;;;26.00;100386.00;;;;5087021;28;20036;-77
2022/01/25 03:59:07;;;;;;;0.73;0.38;;;;;25.90;100383.00;;;;5086647;28;20534;-78
2022/01/25 04:01:37;;;;;;;0.52;0.52;;;;;25.80;100397.00;;;;5086015;28;20046;-77
2022/01/25 04:04:11;;;;;;;0.00;0.00;;;;;25.80;100398.00;;;;5086806;28;20507;-78
2022/01/25 04:06:49;;;;;;;0.43;0.43;;;;;25.70;100384.00;;;;5085645;28;20127;-77
2022/01/25 04:09:19;;;;;;;0.00;0.00;;;;;25.70;100384.00;;;;5085753;28;20043;-77
2022/01/25 04:11:48;;;;;;;5.07;1.83;;;;;25.60;100384.00;;;;5086688;28;20044;-78
2022/01/25 04:14:18;;;;;;;0.70;0.70;;;;;25.50;100378.00;;;;5085702;28;20051;-77
2022/01/25 04:16:57;;;;;;;0.13;0.13;;;;;25.50;100362.00;;;;5086514;28;20406;-77
2022/01/25 04:25:13;;;;;;;0.10;0.10;;;;;25.30;100363.00;;;;5086024;28;20051;-77
2022/01/25 04:27:42;;;;;;;;;;;;;25.20;100356.00;;;;5086411;28;20036;-77
2022/01/25 04:30:11;;;;;;;0.00;0.00;;;;;25.20;100364.00;;;;5085096;28;19969;-77
2022/01/25 04:32:46;;;;;;;0.00;0.00;;;;;25.10;100334.00;;;;5086149;28;20043;-78
2022/01/25 04:49:20;;;;;;;0.00;0.00;;;;;24.90;100298.00;;;;5089966;28;20044;-77
2022/01/25 04:52:08;;;;;;;0.00;0.00;;;;;25.00;100290.00;;;;5089870;28;20410;-76
2022/01/25 04:54:56;;;;;;;0.15;0.15;;;;;25.00;100292.00;;;;5089252;28;20044;-77
2022/01/25 05:05:10;;;;;;;0.00;0.00;;;;;25.10;100264.00;;;;5089410;28;20067;-76
2022/01/25 05:10:14;;;;;;;0.00;0.00;;;;;25.10;100255.00;;;;5089774;28;20040;-76
2022/01/25 05:18:22;;;;;;;0.10;0.10;;;;;25.00;100208.00;;;;5089374;28;20044;-77
2022/01/25 05:23:39;;;;;;;0.00;0.00;;;;;24.90;100168.00;;;;5089503;28;20040;-76
2022/01/25 05:26:08;;;;;;;0.00;0.00;;;;;24.90;100185.00;;;;5070696;28;20070;-76
2022/01/25 05:28:39;;;;;;;0.10;0.10;;;;;24.80;100176.00;;;;5088374;28;20044;-76
2022/01/25 05:31:08;;;;;;;0.00;0.00;;;;;24.80;100170.00;;;;5089296;28;20044;-76
2022/01/25 05:33:38;;;;;;;0.00;0.00;;;;;24.80;100164.00;;;;5088614;28;20407;-76
2022/01/25 05:36:07;;;;;;;0.13;0.13;;;;;24.80;100168.00;;;;5088213;28;20047;-76
2022/01/25 05:38:37;;;;;;;0.00;0.00;;;;;24.80;100155.00;;;;5089452;28;20043;-76
2022/01/25 05:41:06;;;;;;;0.00;0.00;;;;;24.70;100161.00;;;;5088757;28;20613;-76
2022/01/25 05:46:34;;;;;;;0.00;0.00;;;;;24.50;100149.00;;;;5088559;28;20127;-76
2022/01/25 05:49:04;;;;;;;0.00;0.00;;;;;24.50;100132.00;;;;5088031;28;20071;-76
2022/01/25 05:51:34;;;;;;;0.00;0.00;;;;;24.50;100127.00;;;;5087954;28;20055;-76
2022/01/25 05:54:03;;;;;;;0.00;0.00;;;;;24.40;100127.00;;;;5070008;28;20376;-76
2022/01/25 05:56:32;;;;;;;0.00;0.00;;;;;24.30;100094.00;;;;5070849;28;20044;-76
2022/01/25 05:59:02;;;;;;;0.00;0.00;;;;;24.40;100086.00;;;;5088580;28;20456;-76
2022/01/25 06:01:34;;;;;;;0.00;0.00;;;;;24.40;100079.00;;;;5088049;28;20461;-77
2022/01/25 06:04:06;;;;;;;0.00;0.00;;;;;24.40;100074.00;;;;5070348;28;20040;-77
2022/01/25 06:06:36;;;;;;;0.00;0.00;;;;;24.40;100048.00;;;;5088648;28;20073;-77
2022/01/25 06:09:05;;;;;;;0.00;0.00;;;;;24.40;100047.00;;;;5087793;28;20040;-77
2022/01/25 06:11:35;;;;;;;0.00;0.00;;;;;24.40;100050.00;;;;5088416;28;20273;-78
2022/01/25 06:14:06;;;;;;;0.00;0.00;;;;;24.30;100066.00;;;;5087565;28;20040;-75
2022/01/25 06:16:36;;;;;;;0.00;0.00;;;;;24.20;100048.00;;;;5087884;28;20048;-76
2022/01/25 06:19:05;;;;;;;0.00;0.00;;;;;24.20;100049.00;;;;5088146;28;20056;-76
2022/01/25 06:21:37;;;;;;;0.00;0.00;;;;;24.20;100021.00;;;;5087462;28;20125;-76
2022/01/25 06:24:07;;;;;;;0.00;0.00;;;;;24.30;100018.00;;;;5087731;28;20048;-76
2022/01/25 06:26:36;;;;;;;0.30;0.30;;;;;24.30;100030.00;;;;5087786;28;20380;-77
2022/01/25 06:29:05;;;;;;;0.00;0.00;;;;;24.40;100032.00;;;;5070757;28;20048;-76
2022/01/25 06:31:35;;;;;;;0.00;0.00;;;;;24.30;100034.00;;;;5088350;28;20058;-77
2022/01/25 06:34:04;;;;;;;0.00;0.00;;;;;24.20;100031.00;;;;5087707;28;20101;-77
2022/01/25 06:36:34;;;;;;;0.00;0.00;;;;;24.10;100030.00;;;;5088108;28;20105;-77
2022/01/25 06:39:03;;;;;;;0.00;0.00;;;;;24.00;100028.00;;;;5087344;28;20426;-77
2022/01/25 06:41:36;;;;;;;0.00;0.00;;;;;23.90;100016.00;;;;5087570;28;20051;-77
2022/01/25 06:44:06;;;;;;;0.00;0.00;;;;;23.90;100041.00;;;;5087140;28;20086;-77
2022/01/25 06:46:36;;;;;;;0.00;0.00;;;;;23.80;100029.00;;;;5088102;28;20083;-77
2022/01/25 06:49:05;;;;;;;0.00;0.00;;;;;23.80;100010.00;;;;5087409;28;20059;-77
2022/01/25 06:51:35;;;;;;;0.00;0.00;;;;;23.90;100010.00;;;;5087640;28;20418;-76
2022/01/25 06:54:04;;;;;;;0.00;0.00;;;;;23.80;100012.00;;;;5087572;28;20047;-77
2022/01/25 06:56:34;;;;;;;0.00;0.00;;;;;23.80;99977.00;;;;5087879;28;20094;-77
2022/01/25 06:59:03;;;;;;;0.00;0.00;;;;;23.80;99995.00;;;;5087715;28;20530;-77
2022/01/25 07:01:33;;;;;;;0.00;0.00;;;;;23.80;99982.00;;;;5053090;28;20056;-76
2022/01/25 07:04:02;;;;;;;0.00;0.00;;;;;23.80;99986.00;;;;5087380;28;20095;-77
2022/01/25 07:06:32;;;;;;;0.00;0.00;;;;;24.00;99993.00;;;;5086552;28;20051;-77
2022/01/25 07:09:02;;;;;;;0.00;0.00;;;;;24.00;99984.00;;;;5087398;28;20047;-76
2022/01/25 07:11:32;;;;;;;0.00;0.00;;;;;24.00;99975.00;;;;5086900;28;20075;-76
2022/01/25 07:14:01;;;;;;;0.00;0.00;;;;;24.00;99963.00;;;;5086915;28;20050;-77
2022/01/25 07:16:31;;;;;;;0.00;0.00;;;;;23.90;99950.00;;;;5086912;28;20570;-77
2022/01/25 07:19:00;;;;;;;0.00;0.00;;;;;23.90;99955.00;;;;5086731;28;20048;-76
2022/01/25 07:21:30;;;;;;;0.00;0.00;;;;;23.90;99970.00;;;;5086621;28;20055;-77
2022/01/25 07:23:59;;;;;;;0.00;0.00;;;;;23.80;99957.00;;;;5087645;28;20580;-76
2022/01/25 07:26:29;;;;;;;0.00;0.00;;;;;23.80;99949.00;;;;5086596;28;20044;-76
2022/01/25 07:28:58;;;;;;;0.00;0.00;;;;;23.70;99941.00;;;;5086510;28;20131;-76
2022/01/25 07:31:27;;;;;;;0.00;0.00;;;;;23.70;99944.00;;;;5086216;28;20113;-77
2022/01/25 07:33:59;;;;;;;0.00;0.00;;;;;23.70;99951.00;;;;5084733;28;20058;-77
2022/01/25 07:36:30;;;;;;;;;;;;;23.60;99943.00;;;;5068807;28;20064;-77
2022/01/25 07:39:07;;;;;;;0.00;0.00;;;;;23.60;99929.00;;;;5086302;28;19923;-76
2022/01/25 07:41:39;;;;;;;0.00;0.00;;;;;23.60;99941.00;;;;5086225;28;20047;-77
2022/01/25 07:44:08;;;;;;;0.00;0.00;;;;;23.50;99939.00;;;;5086208;28;20048;-77
2022/01/25 07:46:41;;;;;;;0.00;0.00;;;;;23.50;99943.00;;;;5086985;28;20052;-77
2022/01/25 07:49:22;;;;;;;0.00;0.00;;;;;23.40;99955.00;;;;5086248;28;20040;-76
2022/01/25 07:51:56;;;;;;;0.00;0.00;;;;;23.40;99954.00;;;;5086928;28;20048;-76
2022/01/25 07:54:26;;;;;;;0.53;0.30;;;;;23.30;99947.00;;;;5068506;28;20197;-76
2022/01/25 07:56:56;;;;;;;0.00;0.00;;;;;23.30;99949.00;;;;5086482;28;20294;-76
2022/01/25 07:59:27;;;;;;;0.00;0.00;;;;;23.30;99943.00;;;;5086598;28;20075;-75
2022/01/25 08:01:56;;;;;;;0.00;0.00;;;;;23.20;99952.00;;;;5086417;28;20465;-76
2022/01/25 08:04:33;;;;;;;0.00;0.00;;;;;23.10;99939.00;;;;5086538;28;20048;-76
2022/01/25 08:07:02;;;;;;;0.00;0.00;;;;;23.10;99950.00;;;;5086801;28;20036;-77
2022/01/25 08:09:33;;;;;;;0.00;0.00;;;;;23.00;99942.00;;;;5068419;28;20083;-77
2022/01/25 08:12:03;;;;;;;0.00;0.00;;;;;23.00;99946.00;;;;5086831;28;20048;-77
2022/01/25 08:14:35;;;;;;;0.00;0.00;;;;;22.90;99950.00;;;;5086121;28;20467;-76
2022/01/25 08:17:11;;;;;;;0.00;0.00;;;;;22.90;99968.00;;;;5084875;28;20052;-77
2022/01/25 08:19:44;;;;;;;0.00;0.00;;;;;22.80;99970.00;;;;5090206;28;20668;-76
2022/01/25 08:22:28;;;;;;;0.00;0.00;;;;;22.80;99968.00;;;;5056412;28;20154;-77
2022/01/25 08:25:01;;;;;;;0.00;0.00;;;;;22.90;99973.00;;;;5090254;28;20043;-77
2022/01/25 08:27:35;;;;;;;0.00;0.00;;;;;22.80;99984.00;;;;5090142;28;20044;-77
2022/01/25 08:30:15;;;;;;;0.00;0.00;;;;;22.80;99972.00;;;;5090736;28;20803;-76
2022/01/25 08:32:56;;;;;;;0.00;0.00;;;;;22.70;99976.00;;;;5073358;28;20068;-77
2022/01/25 08:35:27;;;;;;;0.13;0.10;;;;;22.70;99989.00;;;;5090022;28;20101;-77
2022/01/25 08:38:12;;;;;;;0.03;0.03;;;;;22.70;99988.00;;;;5089650;28;20526;-76
2022/01/25 08:40:54;;;;;;;0.88;0.80;;;;;22.70;99997.00;;;;5089288;28;20056;-77
2022/01/25 08:43:33;;;;;;;0.00;0.00;;;;;22.70;100007.00;;;;5089508;28;20048;-76
2022/01/25 08:46:05;;;;;;;0.00;0.00;;;;;22.60;100000.00;;;;5089207;28;20097;-76
2022/01/25 08:48:39;;;;;;;0.10;0.10;;;;;22.60;99998.00;;;;5090236;28;20054;-76
2022/01/25 08:51:11;;;;;;;0.00;0.00;;;;;22.60;100009.00;;;;5089231;28;20056;-76
2022/01/25 08:53:44;;;;;;;0.00;0.00;;;;;22.60;100010.00;;;;5090137;28;20406;-77
2022/01/25 08:56:27;;;;;;;0.00;0.00;;;;;22.60;100006.00;;;;5079192;28;20063;-76
2022/01/25 08:59:00;;;;;;;0.00;0.00;;;;;22.60;100004.00;;;;5089215;28;20048;-76
2022/01/25 09:21:21;;;;;;;0.00;0.00;;;;;22.90;100019.00;;;;5165778;27;20500;-74
2022/01/25 09:23:52;;;;;;;0.00;0.00;;;;;23.00;100019.00;;;;5145231;27;20508;-74
2022/01/25 09:26:23;;;;;;;0.00;0.00;;;;;23.10;100030.00;;;;5145837;27;20067;-73
2022/01/25 09:28:54;;;;;;;0.00;0.00;;;;;23.20;100020.00;;;;5145829;27;20125;-73
2022/01/25 09:31:24;;;;;;;;;;;;;23.30;100038.00;;;;5146098;27;20038;-75
2022/01/25 09:33:55;;;;;;;0.00;0.00;;;;;23.40;100043.00;;;;5146686;27;19919;-76
2022/01/25 09:36:25;;;;;;;0.00;0.00;;;;;23.40;100052.00;;;;5145553;27;20039;-74
2022/01/25 09:38:56;;;;;;;0.00;0.00;;;;;23.50;100052.00;;;;5145066;27;20050;-75
2022/01/25 09:41:25;;;;;;;0.00;0.00;;;;;23.50;100069.00;;;;5127242;27;20541;-73
2022/01/25 09:43:55;;;;;;;0.00;0.00;;;;;23.60;100047.00;;;;5145483;27;20637;-75
2022/01/25 09:46:25;;;;;;;0.00;0.00;;;;;23.70;100078.00;;;;5145414;27;20087;-73
2022/01/25 09:48:55;;;;;;;0.00;0.00;;;;;23.90;100064.00;;;;5144963;27;20039;-75
2022/01/25 09:51:25;;;;;;;0.00;0.00;;;;;24.00;100066.00;;;;5144468;27;20046;-76
2022/01/25 09:53:54;;;;;;;0.00;0.00;;;;;24.00;100073.00;;;;5144343;27;20392;-75
2022/01/25 09:56:24;;;;;;;0.00;0.00;;;;;24.00;100059.00;;;;5144617;27;20054;-72
2022/01/25 09:58:53;;;;;;;0.00;0.00;;;;;24.50;100014.00;;;;5145049;27;20042;-75
2022/01/25 10:01:27;;;;;;;0.00;0.00;;;;;26.00;99986.00;;;;5126468;27;20042;-75
2022/01/25 10:04:04;;;;;;;0.00;0.00;;;;;25.30;100062.00;;;;5143969;27;20034;-74
2022/01/25 10:06:34;;;;;;;0.00;0.00;;;;;24.90;100087.00;;;;5143781;27;20080;-76
2022/01/25 10:09:04;;;;;;;0.00;0.00;;;;;24.70;100081.00;;;;5140176;27;20063;-77
2022/01/25 10:11:38;;;;;;;0.00;0.00;;;;;24.80;100066.00;;;;5123329;28;21164;-75
2022/01/25 10:14:08;;;;;;;0.00;0.00;;;;;25.00;100090.00;;;;5122827;28;20517;-77
2022/01/25 10:16:38;;;;;;;0.00;0.00;;;;;25.20;100073.00;;;;5103838;28;20075;-75
2022/01/25 10:19:13;;;;;;;0.00;0.00;;;;;26.00;100069.00;;;;5122576;28;20131;-75
2022/01/25 10:21:51;;;;;;;0.00;0.00;;;;;25.60;100104.00;;;;5123808;28;20130;-74
2022/01/25 10:24:29;;;;;;;0.00;0.00;;;;;25.50;100065.00;;;;5105268;28;20043;-75
2022/01/25 10:27:02;;;;;;;0.00;0.00;;;;;25.70;100089.00;;;;5123269;28;20514;-76
2022/01/25 10:29:35;;;;;;;0.00;0.00;;;;;25.80;100093.00;;;;5123760;28;20039;-74
2022/01/25 10:32:09;;;;;;;0.00;0.00;;;;;26.00;100093.00;;;;5113614;28;20043;-74
2022/01/25 10:34:41;;;;;;;0.00;0.00;;;;;26.30;100069.00;;;;5109998;28;20055;-74
2022/01/25 10:37:14;;;;;;;0.00;0.00;;;;;29.80;99946.00;;;;5090998;28;20135;-74
2022/01/25 10:39:51;;;;;;;0.00;0.00;;;;;31.90;99926.00;;;;5109447;28;20130;-72
2022/01/25 10:42:23;;;;;;;0.00;0.00;;;;;32.80;99924.00;;;;5091382;28;20079;-73
2022/01/25 10:44:59;;;;;;;0.00;0.00;;;;;33.70;99927.00;;;;5092234;28;20036;-74
2022/01/25 10:47:51;;;;;;;0.00;0.00;;;;;34.10;99939.00;;;;5109818;28;20060;-74
2022/01/25 10:50:26;;;;;;;0.17;0.17;;;;;34.80;99927.00;;;;5109716;28;20039;-72
2022/01/25 10:53:07;;;;;;;0.00;0.00;;;;;35.00;99961.00;;;;5110283;28;20122;-73
2022/01/25 10:55:40;;;;;;;0.00;0.00;;;;;35.40;99968.00;;;;5109958;28;20031;-75
2022/01/25 11:08:53;;;;;;;0.10;0.10;;;;;29.60;100069.00;;;;5083486;28;20418;-77
2022/01/25 11:11:32;;;;;;;0.10;0.10;;;;;29.80;100079.00;;;;5083932;28;20522;-76
2022/01/25 11:16:52;;;;;;;0.00;0.00;;;;;32.50;99995.00;;;;5083100;28;20548;-78
2022/01/25 11:19:23;;;;;;;0.13;0.13;;;;;35.10;99988.00;;;;5082503;28;20036;-77
2022/01/25 11:21:54;;;;;;;0.00;0.00;;;;;35.80;99966.00;;;;5081614;28;20447;-77
2022/01/25 11:24:24;;;;;;;;;;;;;36.20;99973.00;;;;5082049;28;20074;-77
2022/01/25 11:26:54;;;;;;;0.87;0.10;;;;;36.50;99977.00;;;;5082115;28;19931;-77
2022/01/25 11:29:26;;;;;;;0.00;0.00;;;;;35.90;99995.00;;;;5082366;28;20306;-78
2022/01/25 11:32:02;;;;;;;0.00;0.00;;;;;35.90;100011.00;;;;5081436;28;20045;-78
2022/01/25 11:34:34;;;;;;;0.00;0.00;;;;;34.80;100001.00;;;;5083277;28;20124;-77
2022/01/25 11:37:09;;;;;;;0.05;0.05;;;;;34.60;100001.00;;;;5083205;28;20406;-77
2022/01/25 11:39:45;;;;;;;0.70;0.70;;;;;34.20;100054.00;;;;5083495;28;20032;-77
2022/01/25 11:42:18;;;;;;;3.03;0.32;;;;;33.00;100114.00;;;;5083328;28;20755;-77
2022/01/25 11:44:57;;;;;;;0.00;0.00;;;;;34.40;99983.00;;;;5083443;28;20129;-77
2022/01/25 11:47:35;;;;;;;0.35;0.35;;;;;35.00;99964.00;;;;5082743;28;20392;-77
2022/01/25 11:50:13;;;;;;;2.30;0.88;;;;;34.70;99964.00;;;;5083057;28;20119;-79
2022/01/25 11:52:48;;;;;;;0.20;0.17;;;;;34.80;100001.00;;;;5082868;28;20040;-78
2022/01/25 11:55:28;;;;;;;0.08;0.08;;;;;34.10;99994.00;;;;5081740;28;20162;-77
2022/01/25 11:58:31;;;;;;;8.35;7.47;;;;;32.90;100103.00;;;;5082289;28;20111;-77
2022/01/25 12:01:08;;;;;;;0.22;0.22;;;;;32.20;100117.00;;;;5080459;28;20531;-77
2022/01/25 12:03:44;;;;;;;0.13;0.13;;;;;32.80;100096.00;;;;5083017;28;20048;-78
2022/01/25 12:06:34;;;;;;;5.68;1.38;;;;;32.20;100121.00;;;;5082457;28;20072;-78
2022/01/25 12:09:15;;;;;;;0.00;0.00;;;;;32.00;100131.00;;;;5093592;28;20458;-76
2022/01/25 12:12:07;;;;;;;0.40;0.40;;;;;31.40;100127.00;;;;5089289;28;20060;-77
2022/01/25 12:14:43;;;;;;;0.00;0.00;;;;;31.50;100122.00;;;;5089124;28;20040;-76
2022/01/25 12:17:24;;;;;;;0.00;0.00;;;;;31.80;100108.00;;;;5089145;28;20055;-77
2022/01/25 12:20:06;;;;;;;0.00;0.00;;;;;31.80;100121.00;;;;5088942;28;20123;-78
2022/01/25 12:22:40;;;;;;;0.22;0.22;;;;;31.70;100112.00;;;;5088919;28;20032;-77
2022/01/25 12:25:25;;;;;;;0.10;0.10;;;;;32.00;100109.00;;;;5089482;28;20044;-77
2022/01/25 12:28:07;;;;;;;0.00;0.00;;;;;32.40;100109.00;;;;5088725;28;20506;-77
2022/01/25 12:30:42;;;;;;;11.20;2.05;;;;;32.10;100096.00;;;;5089323;28;20047;-77
2022/01/25 12:33:21;;;;;;;0.00;0.00;;;;;32.80;100085.00;;;;5090065;28;20089;-77
2022/01/25 12:36:02;;;;;;;0.00;0.00;;;;;32.90;100112.00;;;;5089261;28;20048;-78
2022/01/25 12:38:47;;;;;;;0.10;0.10;;;;;32.50;100094.00;;;;5088552;28;20071;-77
2022/01/25 12:41:20;;;;;;;0.05;0.05;;;;;32.50;100141.00;;;;5089328;28;20562;-77
2022/01/25 12:43:55;;;;;;;0.00;0.00;;;;;32.00;100123.00;;;;5088371;28;20131;-78
2022/01/25 12:46:26;;;;;;;0.00;0.00;;;;;31.70;100133.00;;;;5088649;28;20044;-76
2022/01/25 12:48:59;;;;;;;0.00;0.00;;;;;31.40;100130.00;;;;5087975;28;20063;-77
2022/01/25 12:51:34;;;;;;;0.52;0.52;;;;;31.30;100134.00;;;;5088301;28;20052;-77
2022/01/25 12:54:07;;;;;;;5.13;2.85;;;;;31.20;100128.00;;;;5088401;28;20771;-77
2022/01/25 12:56:45;;;;;;;0.00;0.00;;;;;31.20;100128.00;;;;5088500;28;20050;-77
2022/01/25 12:59:24;;;;;;;0.10;0.10;;;;;31.10;100122.00;;;;5086865;28;20041;-78
2022/01/25 13:01:55;;;;;;;0.10;0.10;;;;;31.30;100040.00;;;;5088040;28;20055;-78
2022/01/25 13:04:25;;;;;;;9.95;0.40;;;;;33.20;100043.00;;;;5088055;28;20123;-77
2022/01/25 13:06:55;;;;;;;0.00;0.00;;;;;33.90;100047.00;;;;5088147;28;20521;-76
2022/01/25 13:09:29;;;;;;;0.00;0.00;;;;;34.40;100045.00;;;;5088448;28;20106;-77
2022/01/25 13:15:02;;;;;;;0.47;0.35;;;;;35.00;100039.00;;;;5088351;28;20028;-77
2022/01/25 13:17:33;;;;;;;0.47;0.47;;;;;35.50;100025.00;;;;5088346;28;20078;-78
2022/01/25 13:20:04;;;;;;;0.00;0.00;;;;;35.80;100040.00;;;;5087156;28;20044;-77
2022/01/25 13:22:42;;;;;;;0.00;0.00;;;;;35.60;100050.00;;;;5088357;28;20418;-78
2022/01/25 13:25:41;;;;;;;0.00;0.00;;;;;35.40;100035.00;;;;5088066;28;20040;-79
2022/01/25 13:28:32;;;;;;;0.10;0.10;;;;;35.50;100040.00;;;;5088018;28;20119;-78
2022/01/25 13:31:20;;;;;;;0.00;0.00;;;;;35.50;100059.00;;;;5088120;28;20040;-78
2022/01/25 13:33:53;;;;;;;0.05;0.05;;;;;35.40;100050.00;;;;5088734;28;20044;-78
2022/01/25 13:36:25;;;;;;;0.00;0.00;;;;;35.20;100051.00;;;;5088028;28;20109;-77
2022/01/25 13:38:58;;;;;;;0.00;0.00;;;;;35.00;100043.00;;;;5087682;28;20072;-78
2022/01/25 13:41:39;;;;;;;0.00;0.00;;;;;35.60;100050.00;;;;5088177;28;20097;-78
2022/01/25 13:47:11;;;;;;;0.00;0.00;;;;;36.30;100041.00;;;;5086781;28;20075;-77
2022/01/25 13:49:42;;;;;;;0.00;0.00;;;;;36.60;100047.00;;;;5087909;28;20109;-76
2022/01/25 13:52:12;;;;;;;0.00;0.00;;;;;36.70;100045.00;;;;5085798;28;20082;-77
2022/01/25 13:54:41;;;;;;;1.92;1.02;;;;;37.10;100046.00;;;;5087208;28;20087;-78
2022/01/25 13:57:12;;;;;;;3.40;1.10;;;;;36.70;100039.00;;;;5087611;28;20075;-79
2022/01/25 13:59:42;;;;;;;0.05;0.05;;;;;35.90;100050.00;;;;5088108;28;20054;-78
2022/01/25 14:02:13;;;;;;;0.08;0.08;;;;;36.20;100055.00;;;;5087788;28;20055;-80
2022/01/25 14:04:43;;;;;;;0.00;0.00;;;;;36.20;100067.00;;;;5087326;28;20159;-79
2022/01/25 14:07:15;;;;;;;0.00;0.00;;;;;36.10;100057.00;;;;5087100;28;20693;-78
2022/01/25 14:09:49;;;;;;;0.00;0.00;;;;;36.00;100052.00;;;;5086829;28;20044;-77
2022/01/25 14:26:05;;;;;;;0.17;0.17;;;;;36.00;100067.00;;;;5085180;28;20056;-77
2022/01/25 14:28:44;;;;;;;0.00;0.00;;;;;36.00;100070.00;;;;5087060;28;20102;-76
2022/01/25 14:31:16;;;;;;;0.00;0.00;;;;;35.80;100060.00;;;;5086921;28;20054;-76
2022/01/25 14:34:07;;;;;;;0.00;0.00;;;;;35.90;100056.00;;;;5086291;28;20111;-76
2022/01/25 14:36:39;;;;;;;;;;;;;36.00;100070.00;;;;5087336;28;20048;-76
2022/01/25 14:39:09;;;;;;;0.00;0.00;;;;;35.30;100075.00;;;;5086097;28;20030;-77
2022/01/25 14:41:39;;;;;;;0.00;0.00;;;;;35.40;100056.00;;;;5087026;28;20044;-76
2022/01/25 14:44:10;;;;;;;0.00;0.00;;;;;36.00;100037.00;;;;5086852;28;20051;-78
2022/01/25 14:46:50;;;;;;;0.17;0.17;;;;;36.80;100037.00;;;;5086053;28;20293;-77
2022/01/25 14:49:28;;;;;;;0.00;0.00;;;;;37.30;100056.00;;;;5086792;28;20419;-77
2022/01/25 14:52:09;;;;;;;0.00;0.00;;;;;36.50;100048.00;;;;5085609;28;20048;-77
2022/01/25 14:54:42;;;;;;;0.00;0.00;;;;;36.30;100046.00;;;;5086613;28;20052;-77
2022/01/25 14:57:19;;;;;;;0.00;0.00;;;;;36.00;100038.00;;;;5085740;28;20131;-78
2022/01/25 14:59:48;;;;;;;0.00;0.00;;;;;36.90;100051.00;;;;5086539;28;20040;-77
2022/01/25 15:02:20;;;;;;;0.00;0.00;;;;;37.20;100034.00;;;;5086884;28;20048;-77
2022/01/25 15:04:58;;;;;;;0.00;0.00;;;;;37.70;100033.00;;;;5086713;28;20406;-76
2022/01/25 15:07:33;;;;;;;0.00;0.00;;;;;37.80;100047.00;;;;5086239;28;20445;-77
2022/01/25 15:10:05;;;;;;;0.00;0.00;;;;;38.10;100035.00;;;;5086595;28;20051;-77
2022/01/25 15:12:45;;;;;;;0.28;0.28;;;;;38.00;100044.00;;;;5086405;28;20048;-77
2022/01/25 15:15:24;;;;;;;0.05;0.05;;;;;38.10;100030.00;;;;5086996;28;20036;-76
2022/01/25 15:17:55;;;;;;;0.00;0.00;;;;;38.50;100027.00;;;;5086194;28;20105;-80
2022/01/25 15:20:25;;;;;;;0.20;0.20;;;;;38.10;100030.00;;;;5086371;28;20055;-77
2022/01/25 15:22:54;;;;;;;0.13;0.13;;;;;38.60;100028.00;;;;5085789;28;20525;-76
2022/01/25 15:25:25;;;;;;;0.00;0.00;;;;;38.70;100015.00;;;;5086415;28;20079;-77
2022/01/25 15:27:55;;;;;;;0.03;0.03;;;;;39.30;100029.00;;;;5086443;28;20048;-77